sensor_id;sensor_type;location;lat;lon;timestamp;P1;durP1;ratioP1;P2;durP2;ratioP2
64653;SDS011;51065;48.884;12.598;2023-07-16T00:01:58;6.72;;;2.38;;
64653;SDS011;51065;48.884;12.598;2023-07-16T00:04:23;5.47;;;2.45;;
64653;SDS011;51065;48.884;12.598;2023-07-16T00:06:49;3.15;;;2.00;;
64653;SDS011;51065;48.884;12.598;2023-07-16T00:09:15;6.57;;;2.42;;
64653;SDS011;51065;48.884;12.598;2023-07-16T00:11:41;5.38;;;2.30;;
64653;SDS011;51065;48.884;12.598;2023-07-16T00:14:06;3.90;;;2.20;;
64653;SDS011;51065;48.884;12.598;2023-07-16T00:16:32;6.03;;;2.20;;
64653;SDS011;51065;48.884;12.598;2023-07-16T00:18:58;3.88;;;2.25;;
64653;SDS011;51065;48.884;12.598;2023-07-16T00:21:24;4.22;;;2.20;;
64653;SDS011;51065;48.884;12.598;2023-07-16T00:23:49;3.85;;;2.03;;
64653;SDS011;51065;48.884;12.598;2023-07-16T00:26:15;3.95;;;1.98;;
64653;SDS011;51065;48.884;12.598;2023-07-16T00:28:41;2.80;;;1.88;;
64653;SDS011;51065;48.884;12.598;2023-07-16T00:31:07;4.03;;;1.90;;
64653;SDS011;51065;48.884;12.598;2023-07-16T00:33:33;2.72;;;2.03;;
64653;SDS011;51065;48.884;12.598;2023-07-16T00:35:58;5.03;;;2.00;;
64653;SDS011;51065;48.884;12.598;2023-07-16T00:38:24;4.03;;;2.00;;
64653;SDS011;51065;48.884;12.598;2023-07-16T00:40:50;4.80;;;2.08;;
64653;SDS011;51065;48.884;12.598;2023-07-16T00:43:15;4.13;;;2.05;;
64653;SDS011;51065;48.884;12.598;2023-07-16T00:45:41;5.00;;;1.80;;
64653;SDS011;51065;48.884;12.598;2023-07-16T00:48:09;3.55;;;1.77;;
64653;SDS011;51065;48.884;12.598;2023-07-16T00:50:36;4.45;;;1.90;;
64653;SDS011;51065;48.884;12.598;2023-07-16T00:53:07;6.18;;;2.10;;
64653;SDS011;51065;48.884;12.598;2023-07-16T00:55:34;3.42;;;1.80;;
64653;SDS011;51065;48.884;12.598;2023-07-16T00:58:02;4.60;;;2.33;;
64653;SDS011;51065;48.884;12.598;2023-07-16T01:00:32;3.75;;;2.00;;
64653;SDS011;51065;48.884;12.598;2023-07-16T01:03:03;4.93;;;2.10;;
64653;SDS011;51065;48.884;12.598;2023-07-16T01:05:38;3.15;;;1.75;;
64653;SDS011;51065;48.884;12.598;2023-07-16T01:08:08;4.82;;;2.25;;
64653;SDS011;51065;48.884;12.598;2023-07-16T01:10:35;3.20;;;1.75;;
64653;SDS011;51065;48.884;12.598;2023-07-16T01:13:03;5.20;;;2.22;;
64653;SDS011;51065;48.884;12.598;2023-07-16T01:15:29;7.63;;;2.65;;
64653;SDS011;51065;48.884;12.598;2023-07-16T01:17:55;4.93;;;2.40;;
64653;SDS011;51065;48.884;12.598;2023-07-16T01:20:20;7.25;;;2.65;;
64653;SDS011;51065;48.884;12.598;2023-07-16T01:22:58;9.18;;;3.00;;
64653;SDS011;51065;48.884;12.598;2023-07-16T01:25:36;5.88;;;2.47;;
64653;SDS011;51065;48.884;12.598;2023-07-16T01:28:27;7.47;;;2.83;;
64653;SDS011;51065;48.884;12.598;2023-07-16T01:31:10;4.18;;;2.63;;
64653;SDS011;51065;48.884;12.598;2023-07-16T01:33:36;6.20;;;2.85;;
64653;SDS011;51065;48.884;12.598;2023-07-16T01:36:04;4.97;;;2.70;;
64653;SDS011;51065;48.884;12.598;2023-07-16T01:38:31;6.93;;;2.65;;
64653;SDS011;51065;48.884;12.598;2023-07-16T01:40:57;5.35;;;2.83;;
64653;SDS011;51065;48.884;12.598;2023-07-16T01:43:23;6.13;;;2.78;;
64653;SDS011;51065;48.884;12.598;2023-07-16T01:45:49;5.47;;;2.70;;
64653;SDS011;51065;48.884;12.598;2023-07-16T01:48:36;6.90;;;2.78;;
64653;SDS011;51065;48.884;12.598;2023-07-16T01:51:01;6.28;;;3.00;;
64653;SDS011;51065;48.884;12.598;2023-07-16T01:53:28;6.47;;;3.00;;
64653;SDS011;51065;48.884;12.598;2023-07-16T01:55:53;5.18;;;2.50;;
64653;SDS011;51065;48.884;12.598;2023-07-16T01:58:19;6.78;;;2.88;;
64653;SDS011;51065;48.884;12.598;2023-07-16T02:00:44;4.05;;;2.47;;
64653;SDS011;51065;48.884;12.598;2023-07-16T02:03:10;8.27;;;2.92;;
64653;SDS011;51065;48.884;12.598;2023-07-16T02:05:36;5.38;;;2.83;;
64653;SDS011;51065;48.884;12.598;2023-07-16T02:08:02;7.32;;;3.10;;
64653;SDS011;51065;48.884;12.598;2023-07-16T02:10:28;7.10;;;3.28;;
64653;SDS011;51065;48.884;12.598;2023-07-16T02:12:53;7.20;;;2.80;;
64653;SDS011;51065;48.884;12.598;2023-07-16T02:15:19;5.97;;;2.30;;
64653;SDS011;51065;48.884;12.598;2023-07-16T02:17:44;6.35;;;2.95;;
64653;SDS011;51065;48.884;12.598;2023-07-16T02:20:10;7.05;;;3.20;;
64653;SDS011;51065;48.884;12.598;2023-07-16T02:22:36;8.55;;;3.40;;
64653;SDS011;51065;48.884;12.598;2023-07-16T02:25:02;5.57;;;2.53;;
64653;SDS011;51065;48.884;12.598;2023-07-16T02:27:29;5.25;;;2.90;;
64653;SDS011;51065;48.884;12.598;2023-07-16T02:29:54;6.57;;;2.58;;
64653;SDS011;51065;48.884;12.598;2023-07-16T02:32:20;4.60;;;2.70;;
64653;SDS011;51065;48.884;12.598;2023-07-16T02:34:45;4.32;;;2.53;;
64653;SDS011;51065;48.884;12.598;2023-07-16T02:37:11;5.93;;;2.50;;
64653;SDS011;51065;48.884;12.598;2023-07-16T02:39:38;6.25;;;2.63;;
64653;SDS011;51065;48.884;12.598;2023-07-16T02:42:04;5.72;;;2.83;;
64653;SDS011;51065;48.884;12.598;2023-07-16T02:44:30;6.47;;;2.60;;
64653;SDS011;51065;48.884;12.598;2023-07-16T02:46:55;7.10;;;2.75;;
64653;SDS011;51065;48.884;12.598;2023-07-16T02:49:21;4.38;;;2.50;;
64653;SDS011;51065;48.884;12.598;2023-07-16T02:51:47;4.75;;;2.67;;
64653;SDS011;51065;48.884;12.598;2023-07-16T02:54:12;4.47;;;2.40;;
64653;SDS011;51065;48.884;12.598;2023-07-16T02:56:38;7.50;;;2.60;;
64653;SDS011;51065;48.884;12.598;2023-07-16T02:59:04;4.60;;;2.38;;
64653;SDS011;51065;48.884;12.598;2023-07-16T03:01:29;3.97;;;2.45;;
64653;SDS011;51065;48.884;12.598;2023-07-16T03:03:55;5.65;;;2.20;;
64653;SDS011;51065;48.884;12.598;2023-07-16T03:06:21;5.53;;;2.47;;
64653;SDS011;51065;48.884;12.598;2023-07-16T03:08:46;4.65;;;2.40;;
64653;SDS011;51065;48.884;12.598;2023-07-16T03:11:13;3.83;;;2.15;;
64653;SDS011;51065;48.884;12.598;2023-07-16T03:13:39;6.03;;;2.50;;
64653;SDS011;51065;48.884;12.598;2023-07-16T03:16:04;5.03;;;2.58;;
64653;SDS011;51065;48.884;12.598;2023-07-16T03:18:30;4.10;;;2.40;;
64653;SDS011;51065;48.884;12.598;2023-07-16T03:20:56;4.50;;;2.60;;
64653;SDS011;51065;48.884;12.598;2023-07-16T03:23:22;4.22;;;2.17;;
64653;SDS011;51065;48.884;12.598;2023-07-16T03:25:48;3.97;;;2.20;;
64653;SDS011;51065;48.884;12.598;2023-07-16T03:28:14;5.47;;;2.60;;
64653;SDS011;51065;48.884;12.598;2023-07-16T03:30:40;4.60;;;2.40;;
64653;SDS011;51065;48.884;12.598;2023-07-16T03:33:09;5.25;;;2.25;;
64653;SDS011;51065;48.884;12.598;2023-07-16T03:35:35;6.88;;;2.67;;
64653;SDS011;51065;48.884;12.598;2023-07-16T03:38:00;3.97;;;2.30;;
64653;SDS011;51065;48.884;12.598;2023-07-16T03:40:26;5.18;;;2.50;;
64653;SDS011;51065;48.884;12.598;2023-07-16T03:42:52;4.38;;;2.38;;
64653;SDS011;51065;48.884;12.598;2023-07-16T03:45:18;8.45;;;2.53;;
64653;SDS011;51065;48.884;12.598;2023-07-16T03:47:45;5.78;;;2.17;;
64653;SDS011;51065;48.884;12.598;2023-07-16T03:50:10;4.35;;;2.40;;
64653;SDS011;51065;48.884;12.598;2023-07-16T03:52:36;5.97;;;2.10;;
64653;SDS011;51065;48.884;12.598;2023-07-16T03:55:01;4.30;;;2.40;;
64653;SDS011;51065;48.884;12.598;2023-07-16T03:57:28;3.45;;;2.33;;
64653;SDS011;51065;48.884;12.598;2023-07-16T03:59:54;4.43;;;2.40;;
64653;SDS011;51065;48.884;12.598;2023-07-16T04:02:19;3.60;;;2.15;;
64653;SDS011;51065;48.884;12.598;2023-07-16T04:04:45;4.53;;;2.40;;
64653;SDS011;51065;48.884;12.598;2023-07-16T04:07:11;6.47;;;2.42;;
64653;SDS011;51065;48.884;12.598;2023-07-16T04:09:37;4.50;;;2.17;;
64653;SDS011;51065;48.884;12.598;2023-07-16T04:12:04;4.43;;;2.10;;
64653;SDS011;51065;48.884;12.598;2023-07-16T04:14:30;4.95;;;2.15;;
64653;SDS011;51065;48.884;12.598;2023-07-16T04:16:55;5.85;;;2.63;;
64653;SDS011;51065;48.884;12.598;2023-07-16T04:19:21;4.57;;;2.25;;
64653;SDS011;51065;48.884;12.598;2023-07-16T04:21:47;3.85;;;2.20;;
64653;SDS011;51065;48.884;12.598;2023-07-16T04:24:12;6.07;;;2.42;;
64653;SDS011;51065;48.884;12.598;2023-07-16T04:26:38;3.38;;;2.13;;
64653;SDS011;51065;48.884;12.598;2023-07-16T04:29:03;5.10;;;2.13;;
64653;SDS011;51065;48.884;12.598;2023-07-16T04:31:29;6.72;;;2.83;;
64653;SDS011;51065;48.884;12.598;2023-07-16T04:33:55;4.53;;;2.30;;
64653;SDS011;51065;48.884;12.598;2023-07-16T04:36:20;5.57;;;2.22;;
64653;SDS011;51065;48.884;12.598;2023-07-16T04:38:46;4.30;;;2.28;;
64653;SDS011;51065;48.884;12.598;2023-07-16T04:41:11;5.15;;;2.40;;
64653;SDS011;51065;48.884;12.598;2023-07-16T04:43:40;6.95;;;2.50;;
64653;SDS011;51065;48.884;12.598;2023-07-16T04:46:05;6.07;;;2.30;;
64653;SDS011;51065;48.884;12.598;2023-07-16T04:48:31;4.70;;;2.20;;
64653;SDS011;51065;48.884;12.598;2023-07-16T04:50:56;5.63;;;2.58;;
64653;SDS011;51065;48.884;12.598;2023-07-16T04:53:22;6.07;;;2.60;;
64653;SDS011;51065;48.884;12.598;2023-07-16T04:55:48;5.15;;;2.22;;
64653;SDS011;51065;48.884;12.598;2023-07-16T04:58:14;4.43;;;2.60;;
64653;SDS011;51065;48.884;12.598;2023-07-16T05:00:40;6.85;;;3.03;;
64653;SDS011;51065;48.884;12.598;2023-07-16T05:03:06;5.97;;;2.53;;
64653;SDS011;51065;48.884;12.598;2023-07-16T05:05:31;4.35;;;2.67;;
64653;SDS011;51065;48.884;12.598;2023-07-16T05:07:57;5.75;;;2.53;;
64653;SDS011;51065;48.884;12.598;2023-07-16T05:10:23;3.25;;;2.10;;
64653;SDS011;51065;48.884;12.598;2023-07-16T05:12:48;5.03;;;2.55;;
64653;SDS011;51065;48.884;12.598;2023-07-16T05:15:14;4.70;;;2.78;;
64653;SDS011;51065;48.884;12.598;2023-07-16T05:17:40;4.68;;;2.15;;
64653;SDS011;51065;48.884;12.598;2023-07-16T05:20:06;5.00;;;2.45;;
64653;SDS011;51065;48.884;12.598;2023-07-16T05:22:32;5.43;;;2.67;;
64653;SDS011;51065;48.884;12.598;2023-07-16T05:24:58;4.78;;;2.40;;
64653;SDS011;51065;48.884;12.598;2023-07-16T05:27:24;5.28;;;2.53;;
64653;SDS011;51065;48.884;12.598;2023-07-16T05:29:50;4.47;;;2.40;;
64653;SDS011;51065;48.884;12.598;2023-07-16T05:32:15;5.68;;;2.28;;
64653;SDS011;51065;48.884;12.598;2023-07-16T05:34:41;4.03;;;2.40;;
64653;SDS011;51065;48.884;12.598;2023-07-16T05:37:06;3.65;;;2.00;;
64653;SDS011;51065;48.884;12.598;2023-07-16T05:39:32;4.22;;;2.67;;
64653;SDS011;51065;48.884;12.598;2023-07-16T05:41:57;4.15;;;2.03;;
64653;SDS011;51065;48.884;12.598;2023-07-16T05:44:23;5.07;;;2.00;;
64653;SDS011;51065;48.884;12.598;2023-07-16T05:46:49;3.80;;;1.98;;
64653;SDS011;51065;48.884;12.598;2023-07-16T05:49:14;5.75;;;2.13;;
64653;SDS011;51065;48.884;12.598;2023-07-16T05:51:40;4.15;;;2.30;;
64653;SDS011;51065;48.884;12.598;2023-07-16T05:54:06;4.43;;;1.85;;
64653;SDS011;51065;48.884;12.598;2023-07-16T05:56:31;4.65;;;2.00;;
64653;SDS011;51065;48.884;12.598;2023-07-16T05:58:57;4.20;;;2.03;;
64653;SDS011;51065;48.884;12.598;2023-07-16T06:01:23;3.95;;;2.10;;
64653;SDS011;51065;48.884;12.598;2023-07-16T06:03:48;4.07;;;1.70;;
64653;SDS011;51065;48.884;12.598;2023-07-16T06:06:14;4.07;;;2.10;;
64653;SDS011;51065;48.884;12.598;2023-07-16T06:08:40;3.35;;;1.95;;
64653;SDS011;51065;48.884;12.598;2023-07-16T06:11:05;2.08;;;1.23;;
64653;SDS011;51065;48.884;12.598;2023-07-16T06:13:31;2.13;;;1.35;;
64653;SDS011;51065;48.884;12.598;2023-07-16T06:15:56;4.13;;;1.40;;
64653;SDS011;51065;48.884;12.598;2023-07-16T06:18:22;4.57;;;1.40;;
64653;SDS011;51065;48.884;12.598;2023-07-16T06:20:48;5.13;;;1.15;;
64653;SDS011;51065;48.884;12.598;2023-07-16T06:23:15;1.35;;;0.93;;
64653;SDS011;51065;48.884;12.598;2023-07-16T06:25:41;2.13;;;1.10;;
64653;SDS011;51065;48.884;12.598;2023-07-16T06:28:09;2.25;;;1.20;;
64653;SDS011;51065;48.884;12.598;2023-07-16T06:30:36;2.53;;;1.00;;
64653;SDS011;51065;48.884;12.598;2023-07-16T06:33:02;4.07;;;1.10;;
64653;SDS011;51065;48.884;12.598;2023-07-16T06:35:28;3.13;;;1.17;;
64653;SDS011;51065;48.884;12.598;2023-07-16T06:37:53;2.53;;;1.08;;
64653;SDS011;51065;48.884;12.598;2023-07-16T06:40:19;5.40;;;1.20;;
64653;SDS011;51065;48.884;12.598;2023-07-16T06:42:44;1.52;;;1.05;;
64653;SDS011;51065;48.884;12.598;2023-07-16T06:45:10;1.83;;;0.82;;
64653;SDS011;51065;48.884;12.598;2023-07-16T06:47:35;1.67;;;0.95;;
64653;SDS011;51065;48.884;12.598;2023-07-16T06:50:01;1.38;;;0.90;;
64653;SDS011;51065;48.884;12.598;2023-07-16T06:52:27;1.30;;;0.80;;
64653;SDS011;51065;48.884;12.598;2023-07-16T06:54:53;3.50;;;1.17;;
64653;SDS011;51065;48.884;12.598;2023-07-16T06:57:20;2.15;;;1.08;;
64653;SDS011;51065;48.884;12.598;2023-07-16T06:59:46;3.65;;;0.85;;
64653;SDS011;51065;48.884;12.598;2023-07-16T07:02:11;2.80;;;0.73;;
64653;SDS011;51065;48.884;12.598;2023-07-16T07:04:37;1.67;;;1.08;;
64653;SDS011;51065;48.884;12.598;2023-07-16T07:07:03;3.15;;;1.08;;
64653;SDS011;51065;48.884;12.598;2023-07-16T07:09:29;1.42;;;1.00;;
64653;SDS011;51065;48.884;12.598;2023-07-16T07:11:55;1.63;;;0.88;;
64653;SDS011;51065;48.884;12.598;2023-07-16T07:14:20;2.42;;;0.90;;
64653;SDS011;51065;48.884;12.598;2023-07-16T07:16:46;1.55;;;0.80;;
64653;SDS011;51065;48.884;12.598;2023-07-16T07:19:11;3.78;;;0.93;;
64653;SDS011;51065;48.884;12.598;2023-07-16T07:21:37;1.00;;;0.70;;
64653;SDS011;51065;48.884;12.598;2023-07-16T07:24:03;1.98;;;0.60;;
64653;SDS011;51065;48.884;12.598;2023-07-16T07:26:28;2.47;;;1.00;;
64653;SDS011;51065;48.884;12.598;2023-07-16T07:28:54;2.13;;;0.80;;
64653;SDS011;51065;48.884;12.598;2023-07-16T07:31:19;3.50;;;1.10;;
64653;SDS011;51065;48.884;12.598;2023-07-16T07:33:45;2.33;;;0.90;;
64653;SDS011;51065;48.884;12.598;2023-07-16T07:36:11;2.92;;;0.95;;
64653;SDS011;51065;48.884;12.598;2023-07-16T07:38:36;2.30;;;0.68;;
64653;SDS011;51065;48.884;12.598;2023-07-16T07:41:02;2.92;;;0.90;;
64653;SDS011;51065;48.884;12.598;2023-07-16T07:43:30;2.38;;;0.95;;
64653;SDS011;51065;48.884;12.598;2023-07-16T07:45:56;1.30;;;0.88;;
64653;SDS011;51065;48.884;12.598;2023-07-16T07:48:21;1.80;;;1.08;;
64653;SDS011;51065;48.884;12.598;2023-07-16T07:50:47;2.70;;;0.80;;
64653;SDS011;51065;48.884;12.598;2023-07-16T07:53:13;2.53;;;1.10;;
64653;SDS011;51065;48.884;12.598;2023-07-16T07:55:39;1.73;;;0.98;;
64653;SDS011;51065;48.884;12.598;2023-07-16T07:58:05;2.13;;;1.00;;
64653;SDS011;51065;48.884;12.598;2023-07-16T08:00:32;1.83;;;0.73;;
64653;SDS011;51065;48.884;12.598;2023-07-16T08:02:58;1.63;;;0.82;;
64653;SDS011;51065;48.884;12.598;2023-07-16T08:05:23;2.97;;;1.10;;
64653;SDS011;51065;48.884;12.598;2023-07-16T08:07:49;3.28;;;1.13;;
64653;SDS011;51065;48.884;12.598;2023-07-16T08:10:15;1.67;;;1.20;;
64653;SDS011;51065;48.884;12.598;2023-07-16T08:12:40;1.80;;;1.27;;
64653;SDS011;51065;48.884;12.598;2023-07-16T08:15:06;3.50;;;1.17;;
64653;SDS011;51065;48.884;12.598;2023-07-16T08:17:34;3.15;;;1.13;;
64653;SDS011;51065;48.884;12.598;2023-07-16T08:20:00;3.38;;;1.08;;
64653;SDS011;51065;48.884;12.598;2023-07-16T08:22:25;4.35;;;0.93;;
64653;SDS011;51065;48.884;12.598;2023-07-16T08:24:51;3.85;;;1.27;;
64653;SDS011;51065;48.884;12.598;2023-07-16T08:27:17;2.17;;;1.17;;
64653;SDS011;51065;48.884;12.598;2023-07-16T08:29:44;3.20;;;1.02;;
64653;SDS011;51065;48.884;12.598;2023-07-16T08:32:09;3.10;;;1.10;;
64653;SDS011;51065;48.884;12.598;2023-07-16T08:34:35;2.10;;;1.00;;
64653;SDS011;51065;48.884;12.598;2023-07-16T08:37:01;3.15;;;1.02;;
64653;SDS011;51065;48.884;12.598;2023-07-16T08:39:26;4.72;;;1.10;;
64653;SDS011;51065;48.884;12.598;2023-07-16T08:41:52;4.57;;;1.35;;
64653;SDS011;51065;48.884;12.598;2023-07-16T08:44:18;3.00;;;1.10;;
64653;SDS011;51065;48.884;12.598;2023-07-16T08:46:45;2.25;;;0.80;;
64653;SDS011;51065;48.884;12.598;2023-07-16T08:49:10;2.42;;;1.02;;
64653;SDS011;51065;48.884;12.598;2023-07-16T08:51:37;3.35;;;1.15;;
64653;SDS011;51065;48.884;12.598;2023-07-16T08:54:04;1.15;;;0.75;;
64653;SDS011;51065;48.884;12.598;2023-07-16T08:56:29;2.60;;;1.02;;
64653;SDS011;51065;48.884;12.598;2023-07-16T08:58:55;3.60;;;1.33;;
64653;SDS011;51065;48.884;12.598;2023-07-16T09:01:22;3.97;;;1.20;;
64653;SDS011;51065;48.884;12.598;2023-07-16T09:03:47;1.70;;;1.10;;
64653;SDS011;51065;48.884;12.598;2023-07-16T09:06:13;3.60;;;1.15;;
64653;SDS011;51065;48.884;12.598;2023-07-16T09:08:39;5.60;;;2.50;;
64653;SDS011;51065;48.884;12.598;2023-07-16T09:11:04;6.40;;;1.30;;
64653;SDS011;51065;48.884;12.598;2023-07-16T09:13:30;5.22;;;1.10;;
64653;SDS011;51065;48.884;12.598;2023-07-16T09:15:56;1.67;;;1.10;;
64653;SDS011;51065;48.884;12.598;2023-07-16T09:18:24;3.10;;;1.20;;
64653;SDS011;51065;48.884;12.598;2023-07-16T09:20:54;4.18;;;1.10;;
64653;SDS011;51065;48.884;12.598;2023-07-16T09:23:26;6.50;;;1.10;;
64653;SDS011;51065;48.884;12.598;2023-07-16T09:25:55;5.88;;;1.20;;
64653;SDS011;51065;48.884;12.598;2023-07-16T09:28:21;5.25;;;1.88;;
64653;SDS011;51065;48.884;12.598;2023-07-16T09:30:47;2.40;;;1.45;;
64653;SDS011;51065;48.884;12.598;2023-07-16T09:33:14;4.68;;;1.30;;
64653;SDS011;51065;48.884;12.598;2023-07-16T09:35:40;2.60;;;1.13;;
64653;SDS011;51065;48.884;12.598;2023-07-16T09:38:07;1.92;;;1.00;;
64653;SDS011;51065;48.884;12.598;2023-07-16T09:40:37;3.10;;;1.20;;
64653;SDS011;51065;48.884;12.598;2023-07-16T09:43:04;3.00;;;0.95;;
64653;SDS011;51065;48.884;12.598;2023-07-16T09:45:31;2.88;;;1.30;;
64653;SDS011;51065;48.884;12.598;2023-07-16T09:47:57;3.70;;;1.40;;
64653;SDS011;51065;48.884;12.598;2023-07-16T09:50:27;6.80;;;1.50;;
64653;SDS011;51065;48.884;12.598;2023-07-16T09:52:55;2.33;;;1.17;;
64653;SDS011;51065;48.884;12.598;2023-07-16T09:55:22;4.05;;;1.23;;
64653;SDS011;51065;48.884;12.598;2023-07-16T09:57:49;5.18;;;1.65;;
64653;SDS011;51065;48.884;12.598;2023-07-16T10:00:17;4.00;;;1.73;;
64653;SDS011;51065;48.884;12.598;2023-07-16T10:02:45;4.18;;;1.15;;
64653;SDS011;51065;48.884;12.598;2023-07-16T10:05:15;4.38;;;1.70;;
64653;SDS011;51065;48.884;12.598;2023-07-16T10:07:41;3.80;;;1.35;;
64653;SDS011;51065;48.884;12.598;2023-07-16T10:10:09;2.45;;;1.10;;
64653;SDS011;51065;48.884;12.598;2023-07-16T10:12:36;1.48;;;1.02;;
64653;SDS011;51065;48.884;12.598;2023-07-16T10:15:05;2.95;;;1.10;;
64653;SDS011;51065;48.884;12.598;2023-07-16T10:17:31;3.42;;;1.30;;
64653;SDS011;51065;48.884;12.598;2023-07-16T10:19:58;4.90;;;1.17;;
64653;SDS011;51065;48.884;12.598;2023-07-16T10:25:07;3.97;;;1.40;;
64653;SDS011;51065;48.884;12.598;2023-07-16T10:27:35;4.15;;;1.40;;
64653;SDS011;51065;48.884;12.598;2023-07-16T10:30:02;3.47;;;1.25;;
64653;SDS011;51065;48.884;12.598;2023-07-16T10:32:30;3.10;;;1.10;;
64653;SDS011;51065;48.884;12.598;2023-07-16T10:34:57;3.72;;;1.30;;
64653;SDS011;51065;48.884;12.598;2023-07-16T10:37:24;2.88;;;1.20;;
64653;SDS011;51065;48.884;12.598;2023-07-16T10:39:51;3.42;;;1.30;;
64653;SDS011;51065;48.884;12.598;2023-07-16T10:42:19;4.50;;;1.48;;
64653;SDS011;51065;48.884;12.598;2023-07-16T10:44:57;3.00;;;1.55;;
64653;SDS011;51065;48.884;12.598;2023-07-16T10:47:30;2.38;;;1.10;;
64653;SDS011;51065;48.884;12.598;2023-07-16T10:49:58;3.58;;;1.40;;
64653;SDS011;51065;48.884;12.598;2023-07-16T10:52:24;3.25;;;1.33;;
64653;SDS011;51065;48.884;12.598;2023-07-16T10:54:51;4.45;;;1.45;;
64653;SDS011;51065;48.884;12.598;2023-07-16T10:57:21;3.72;;;1.20;;
64653;SDS011;51065;48.884;12.598;2023-07-16T10:59:46;3.03;;;1.20;;
64653;SDS011;51065;48.884;12.598;2023-07-16T11:02:14;2.97;;;1.48;;
64653;SDS011;51065;48.884;12.598;2023-07-16T11:04:40;2.50;;;1.27;;
64653;SDS011;51065;48.884;12.598;2023-07-16T11:07:10;2.45;;;0.98;;
64653;SDS011;51065;48.884;12.598;2023-07-16T11:09:41;2.33;;;1.05;;
64653;SDS011;51065;48.884;12.598;2023-07-16T11:12:08;5.88;;;1.30;;
64653;SDS011;51065;48.884;12.598;2023-07-16T11:14:34;2.65;;;1.10;;
64653;SDS011;51065;48.884;12.598;2023-07-16T11:17:04;2.35;;;1.30;;
64653;SDS011;51065;48.884;12.598;2023-07-16T11:19:33;3.05;;;1.40;;
64653;SDS011;51065;48.884;12.598;2023-07-16T11:22:00;4.63;;;1.40;;
64653;SDS011;51065;48.884;12.598;2023-07-16T11:24:26;2.53;;;1.30;;
64653;SDS011;51065;48.884;12.598;2023-07-16T11:26:53;2.25;;;1.48;;
64653;SDS011;51065;48.884;12.598;2023-07-16T11:29:23;3.30;;;1.23;;
64653;SDS011;51065;48.884;12.598;2023-07-16T11:31:50;1.95;;;1.23;;
64653;SDS011;51065;48.884;12.598;2023-07-16T11:34:16;2.47;;;1.23;;
64653;SDS011;51065;48.884;12.598;2023-07-16T11:36:42;2.38;;;1.30;;
64653;SDS011;51065;48.884;12.598;2023-07-16T11:39:07;4.28;;;1.45;;
64653;SDS011;51065;48.884;12.598;2023-07-16T11:41:35;4.18;;;1.40;;
64653;SDS011;51065;48.884;12.598;2023-07-16T11:44:01;3.45;;;1.33;;
64653;SDS011;51065;48.884;12.598;2023-07-16T11:46:30;2.00;;;1.08;;
64653;SDS011;51065;48.884;12.598;2023-07-16T11:49:00;4.13;;;1.35;;
64653;SDS011;51065;48.884;12.598;2023-07-16T11:51:26;3.03;;;1.40;;
64653;SDS011;51065;48.884;12.598;2023-07-16T11:53:52;3.75;;;1.23;;
64653;SDS011;51065;48.884;12.598;2023-07-16T11:56:20;3.78;;;1.42;;
64653;SDS011;51065;48.884;12.598;2023-07-16T11:58:46;5.32;;;1.50;;
64653;SDS011;51065;48.884;12.598;2023-07-16T12:01:13;2.35;;;1.20;;
64653;SDS011;51065;48.884;12.598;2023-07-16T12:03:40;2.63;;;1.27;;
64653;SDS011;51065;48.884;12.598;2023-07-16T12:06:05;3.33;;;1.55;;
64653;SDS011;51065;48.884;12.598;2023-07-16T12:08:31;1.85;;;1.30;;
64653;SDS011;51065;48.884;12.598;2023-07-16T12:10:57;4.55;;;1.50;;
64653;SDS011;51065;48.884;12.598;2023-07-16T12:13:22;2.28;;;1.17;;
64653;SDS011;51065;48.884;12.598;2023-07-16T12:15:48;2.10;;;1.20;;
64653;SDS011;51065;48.884;12.598;2023-07-16T12:18:13;1.48;;;1.25;;
64653;SDS011;51065;48.884;12.598;2023-07-16T12:20:39;2.97;;;1.15;;
64653;SDS011;51065;48.884;12.598;2023-07-16T12:23:05;2.03;;;1.45;;
64653;SDS011;51065;48.884;12.598;2023-07-16T12:25:30;2.80;;;1.20;;
64653;SDS011;51065;48.884;12.598;2023-07-16T12:27:56;3.30;;;1.30;;
64653;SDS011;51065;48.884;12.598;2023-07-16T12:30:23;4.97;;;1.70;;
64653;SDS011;51065;48.884;12.598;2023-07-16T12:32:49;3.90;;;1.38;;
64653;SDS011;51065;48.884;12.598;2023-07-16T12:35:15;2.67;;;1.30;;
64653;SDS011;51065;48.884;12.598;2023-07-16T12:37:41;3.00;;;1.40;;
64653;SDS011;51065;48.884;12.598;2023-07-16T12:40:06;2.80;;;1.30;;
64653;SDS011;51065;48.884;12.598;2023-07-16T12:42:32;3.80;;;1.45;;
64653;SDS011;51065;48.884;12.598;2023-07-16T12:44:58;3.10;;;1.40;;
64653;SDS011;51065;48.884;12.598;2023-07-16T12:47:24;2.47;;;1.30;;
64653;SDS011;51065;48.884;12.598;2023-07-16T12:49:49;1.55;;;1.00;;
64653;SDS011;51065;48.884;12.598;2023-07-16T12:52:15;2.10;;;1.20;;
64653;SDS011;51065;48.884;12.598;2023-07-16T12:54:40;2.30;;;1.30;;
64653;SDS011;51065;48.884;12.598;2023-07-16T12:57:06;2.50;;;1.38;;
64653;SDS011;51065;48.884;12.598;2023-07-16T12:59:32;2.47;;;1.27;;
64653;SDS011;51065;48.884;12.598;2023-07-16T13:01:57;4.13;;;1.70;;
64653;SDS011;51065;48.884;12.598;2023-07-16T13:04:23;2.67;;;1.40;;
64653;SDS011;51065;48.884;12.598;2023-07-16T13:06:49;2.10;;;1.10;;
64653;SDS011;51065;48.884;12.598;2023-07-16T13:09:14;2.67;;;1.30;;
64653;SDS011;51065;48.884;12.598;2023-07-16T13:11:41;1.98;;;1.23;;
64653;SDS011;51065;48.884;12.598;2023-07-16T13:14:07;3.50;;;1.42;;
64653;SDS011;51065;48.884;12.598;2023-07-16T13:16:33;1.67;;;1.15;;
64653;SDS011;51065;48.884;12.598;2023-07-16T13:18:59;4.50;;;1.33;;
64653;SDS011;51065;48.884;12.598;2023-07-16T13:21:24;2.00;;;1.25;;
64653;SDS011;51065;48.884;12.598;2023-07-16T13:23:50;4.75;;;1.55;;
64653;SDS011;51065;48.884;12.598;2023-07-16T13:26:15;2.50;;;1.35;;
64653;SDS011;51065;48.884;12.598;2023-07-16T13:28:41;3.50;;;1.50;;
64653;SDS011;51065;48.884;12.598;2023-07-16T13:31:07;3.92;;;1.70;;
64653;SDS011;51065;48.884;12.598;2023-07-16T13:33:32;2.50;;;1.30;;
64653;SDS011;51065;48.884;12.598;2023-07-16T13:35:58;2.40;;;1.10;;
64653;SDS011;51065;48.884;12.598;2023-07-16T13:38:26;3.92;;;1.30;;
64653;SDS011;51065;48.884;12.598;2023-07-16T13:40:52;2.20;;;1.33;;
64653;SDS011;51065;48.884;12.598;2023-07-16T13:43:17;1.50;;;1.40;;
64653;SDS011;51065;48.884;12.598;2023-07-16T13:45:49;2.67;;;1.80;;
64653;SDS011;51065;48.884;12.598;2023-07-16T13:48:23;1.85;;;1.42;;
64653;SDS011;51065;48.884;12.598;2023-07-16T13:50:49;2.67;;;1.42;;
64653;SDS011;51065;48.884;12.598;2023-07-16T13:53:14;4.00;;;1.45;;
64653;SDS011;51065;48.884;12.598;2023-07-16T13:55:40;2.30;;;1.40;;
64653;SDS011;51065;48.884;12.598;2023-07-16T13:58:06;2.30;;;1.42;;
64653;SDS011;51065;48.884;12.598;2023-07-16T14:00:31;2.17;;;1.60;;
64653;SDS011;51065;48.884;12.598;2023-07-16T14:02:57;3.35;;;1.38;;
64653;SDS011;51065;48.884;12.598;2023-07-16T14:05:22;3.92;;;1.52;;
64653;SDS011;51065;48.884;12.598;2023-07-16T14:07:48;3.95;;;1.30;;
64653;SDS011;51065;48.884;12.598;2023-07-16T14:10:30;2.08;;;1.40;;
64653;SDS011;51065;48.884;12.598;2023-07-16T14:12:56;2.25;;;1.65;;
64653;SDS011;51065;48.884;12.598;2023-07-16T14:15:21;2.28;;;1.30;;
64653;SDS011;51065;48.884;12.598;2023-07-16T14:17:48;4.30;;;1.52;;
64653;SDS011;51065;48.884;12.598;2023-07-16T14:20:13;4.43;;;1.40;;
64653;SDS011;51065;48.884;12.598;2023-07-16T14:22:39;1.63;;;1.35;;
64653;SDS011;51065;48.884;12.598;2023-07-16T14:25:04;2.58;;;1.40;;
64653;SDS011;51065;48.884;12.598;2023-07-16T14:27:30;1.77;;;1.20;;
64653;SDS011;51065;48.884;12.598;2023-07-16T14:29:57;1.52;;;1.25;;
64653;SDS011;51065;48.884;12.598;2023-07-16T14:32:23;2.08;;;1.33;;